Time;durP1;ratioP1;P1;durP2;ratioP2;P2;SDS_P1;SDS_P2;PMS_P1;PMS_P2;Temp;Humidity;BMP_temperature;BMP_pressure;BME280_temperature;BME280_humidity;BME280_pressure;Samples;Min_cycle;Max_cycle;Signal;HPM_P1;HPM_P2
2023/07/04 00:00:21;;;;;;;206.43;200.27;;;14.20;99.90;;;;;;4936998;28;20332;-84
2023/07/04 00:05:53;;;;;;;208.60;202.43;;;14.10;99.90;;;;;;4953586;29;20213;-83
2023/07/04 00:08:21;;;;;;;227.57;221.03;;;14.10;99.90;;;;;;4935721;29;20221;-83
2023/07/04 00:10:47;;;;;;;219.07;212.33;;;14.10;99.90;;;;;;4935949;29;20259;-83
2023/07/04 00:13:20;;;;;;;235.00;227.93;;;14.10;99.90;;;;;;4935919;29;20224;-82
2023/07/04 00:16:07;;;;;;;222.73;216.33;;;14.10;99.90;;;;;;4935926;29;20236;-82
2023/07/04 00:18:46;;;;;;;228.77;222.07;;;14.10;99.90;;;;;;4936662;29;20271;-84
2023/07/04 00:28:28;;;;;;;229.53;222.87;;;14.00;99.90;;;;;;4895299;29;20228;-83
2023/07/04 00:31:18;;;;;;;236.70;229.97;;;13.90;99.90;;;;;;4934641;29;20251;-84
2023/07/04 00:33:53;;;;;;;232.63;225.83;;;13.90;99.90;;;;;;4918112;29;20262;-83
2023/07/04 00:36:37;;;;;;;231.60;224.57;;;13.90;99.90;;;;;;4925400;29;20355;-84
2023/07/04 00:39:26;;;;;;;292.60;283.80;;;13.90;99.90;;;;;;4929818;29;20257;-84
2023/07/04 00:42:36;;;;;;;219.73;213.40;;;13.90;99.90;;;;;;4910951;29;20233;-84
2023/07/04 00:46:09;;;;;;;227.10;220.50;;;13.90;99.90;;;;;;4921900;29;20221;-83
2023/07/04 00:48:44;;;;;;;229.80;223.03;;;13.90;99.90;;;;;;4863181;29;20273;-83
2023/07/04 00:54:15;;;;;;;230.60;223.70;;;14.00;99.90;;;;;;4874327;29;20272;-84
2023/07/04 00:56:46;;;;;;;245.90;238.70;;;14.00;99.90;;;;;;4948292;29;20225;-84
2023/07/04 00:59:27;;;;;;;275.40;267.43;;;14.10;99.90;;;;;;4947730;28;20730;-83
2023/07/04 01:02:05;;;;;;;256.17;248.63;;;14.20;99.90;;;;;;4916470;29;20222;-84
2023/07/04 01:04:52;;;;;;;256.67;248.70;;;14.20;99.90;;;;;;4933296;29;20221;-83
2023/07/04 01:07:50;;;;;;;241.93;234.90;;;14.20;99.90;;;;;;4948016;29;20218;-83
2023/07/04 01:17:12;;;;;;;235.17;228.40;;;14.20;99.90;;;;;;4933501;29;20224;-84
2023/07/04 01:19:50;;;;;;;272.13;264.00;;;14.20;99.90;;;;;;4917259;29;20260;-84
2023/07/04 01:22:37;;;;;;;255.57;248.20;;;14.20;99.90;;;;;;4933206;29;20221;-83
2023/07/04 01:25:31;;;;;;;240.80;233.73;;;14.30;99.90;;;;;;4932856;29;20229;-85
2023/07/04 01:28:29;;;;;;;265.30;257.57;;;14.20;99.90;;;;;;4929732;29;20353;-85
2023/07/04 01:31:06;;;;;;;244.90;237.73;;;14.20;99.90;;;;;;4936013;29;20301;-84
2023/07/04 01:38:18;;;;;;;222.70;216.27;;;14.10;99.90;;;;;;4910058;29;20234;-84
2023/07/04 01:41:03;;;;;;;225.73;219.03;;;14.10;99.90;;;;;;4919420;29;20236;-86
2023/07/04 01:43:38;;;;;;;223.27;216.60;;;14.10;99.90;;;;;;4916360;29;20320;-86
2023/07/04 01:46:11;;;;;;;252.97;245.57;;;14.00;99.90;;;;;;4903274;29;20223;-83
2023/07/04 01:48:41;;;;;;;243.20;236.23;;;14.00;99.90;;;;;;4898765;29;20206;-83
2023/07/04 01:51:26;;;;;;;241.73;234.40;;;14.00;99.90;;;;;;4915848;29;20648;-84
2023/07/04 01:54:07;;;;;;;233.77;226.77;;;14.00;99.90;;;;;;4931739;29;20204;-85
2023/07/04 01:56:58;;;;;;;236.40;229.63;;;14.00;99.90;;;;;;4904934;29;20294;-84
2023/07/04 01:59:41;;;;;;;241.10;234.07;;;14.10;99.90;;;;;;4930201;29;20237;-82
2023/07/04 02:02:10;;;;;;;225.20;218.67;;;14.10;99.90;;;;;;4917784;29;20241;-83
2023/07/04 02:04:49;;;;;;;257.73;250.27;;;14.00;99.90;;;;;;4913369;29;20572;-83
2023/07/04 02:07:30;;;;;;;226.67;220.23;;;14.00;99.90;;;;;;4914883;29;20214;-83
2023/07/04 02:09:56;;;;;;;215.57;209.33;;;14.00;99.90;;;;;;4898058;29;20280;-83
2023/07/04 02:12:30;;;;;;;203.73;197.73;;;14.00;99.90;;;;;;4896645;29;20194;-82
2023/07/04 02:15:26;;;;;;;258.83;250.23;;;14.00;99.90;;;;;;4931471;29;20273;-82
2023/07/04 02:18:00;;;;;;;244.80;237.73;;;14.10;99.90;;;;;;4921995;29;20217;-83
2023/07/04 02:20:44;;;;;;;250.07;242.70;;;14.10;99.90;;;;;;4902517;29;20238;-83
2023/07/04 02:23:54;;;;;;;211.63;205.30;;;14.20;99.90;;;;;;4927912;29;20213;-82
2023/07/04 02:26:40;;;;;;;177.93;172.60;;;14.20;99.90;;;;;;4897295;29;20290;-84
2023/07/04 02:29:22;;;;;;;;;;;;;;;;;;;;;
2023/07/04 02:36:17;;;;;;;205.30;199.37;;;14.20;99.90;;;;;;4868159;29;20413;-83
2023/07/04 02:38:52;;;;;;;193.53;188.00;;;14.20;99.90;;;;;;4895112;29;20226;-83
2023/07/04 02:41:50;;;;;;;192.70;187.10;;;14.20;99.90;;;;;;4910521;29;20265;-83
2023/07/04 02:44:22;;;;;;;195.90;189.80;;;14.10;99.90;;;;;;4894415;29;20214;-84
2023/07/04 02:54:52;;;;;;;209.97;203.27;;;14.20;99.90;;;;;;4884471;29;20352;-82
2023/07/04 02:57:19;;;;;;;210.00;203.53;;;14.30;99.90;;;;;;4885420;29;20654;-83
2023/07/04 02:59:50;;;;;;;197.73;191.73;;;14.40;99.90;;;;;;4916192;29;20248;-83
2023/07/04 03:03:02;;;;;;;205.93;198.53;;;14.40;99.90;;;;;;4916318;29;20304;-84
2023/07/04 03:05:47;;;;;;;280.40;271.73;;;14.30;99.90;;;;;;4935276;29;20233;-84
2023/07/04 03:08:21;;;;;;;177.20;171.80;;;14.10;99.90;;;;;;4941045;29;20220;-83
2023/07/04 03:11:07;;;;;;;176.10;170.57;;;14.00;99.90;;;;;;4870170;29;20739;-83
2023/07/04 03:13:41;;;;;;;250.37;242.70;;;13.90;99.90;;;;;;4921922;29;20687;-83
2023/07/04 03:27:59;;;;;;;153.63;148.93;;;13.60;99.90;;;;;;4875620;29;20226;-83
2023/07/04 03:30:51;;;;;;;;;;;;;;;;;;;;;
2023/07/04 03:33:23;;;;;;;175.00;169.90;;;13.50;99.90;;;;;;4893524;29;20222;-83
2023/07/04 03:35:58;;;;;;;185.53;180.13;;;13.50;99.90;;;;;;4926565;28;20257;-83
2023/07/04 03:38:26;;;;;;;178.37;173.10;;;13.50;99.90;;;;;;4937384;28;20216;-83
2023/07/04 03:41:07;;;;;;;189.33;183.93;;;13.50;99.90;;;;;;4926533;29;20307;-83
2023/07/04 03:43:39;;;;;;;170.87;165.63;;;13.40;99.90;;;;;;4927294;28;20225;-82
2023/07/04 03:46:05;;;;;;;184.93;179.30;;;13.40;99.90;;;;;;4920500;29;20224;-82
2023/07/04 03:48:57;;;;;;;175.40;170.27;;;13.40;99.90;;;;;;4934409;28;20276;-83
2023/07/04 03:51:25;;;;;;;195.10;189.50;;;13.30;99.90;;;;;;4950407;29;20197;-83
2023/07/04 03:53:54;;;;;;;188.87;183.00;;;13.30;99.90;;;;;;4936371;29;20201;-82
2023/07/04 03:56:20;;;;;;;193.30;187.53;;;13.30;99.90;;;;;;4953381;29;20229;-82
2023/07/04 03:58:58;;;;;;;231.53;224.97;;;13.40;99.90;;;;;;4951907;29;20225;-83
2023/07/04 04:01:32;;;;;;;197.50;191.40;;;13.40;99.90;;;;;;4915128;29;20234;-84
2023/07/04 04:03:58;;;;;;;222.13;215.67;;;13.60;99.90;;;;;;4904050;29;20222;-83
2023/07/04 04:06:24;;;;;;;197.73;191.93;;;13.60;99.90;;;;;;4889269;29;20205;-86
2023/07/04 04:08:50;;;;;;;208.13;201.67;;;13.80;99.90;;;;;;4916123;29;20229;-83
2023/07/04 04:11:35;;;;;;;209.87;203.77;;;13.80;99.90;;;;;;4915258;29;20297;-83
2023/07/04 04:14:19;;;;;;;189.70;184.17;;;13.90;99.90;;;;;;4906171;29;20276;-84
2023/07/04 04:24:10;;;;;;;208.30;202.07;;;14.20;99.90;;;;;;4849840;29;20373;-86
2023/07/04 04:26:43;;;;;;;210.47;204.43;;;14.40;99.90;;;;;;4914356;29;20193;-84
2023/07/04 04:29:19;;;;;;;224.50;218.07;;;14.40;99.90;;;;;;4913116;29;20228;-83
2023/07/04 04:31:55;;;;;;;209.87;203.73;;;14.40;99.90;;;;;;4920502;29;20249;-84
2023/07/04 04:34:30;;;;;;;241.40;234.57;;;14.50;99.90;;;;;;4934204;28;20220;-83
2023/07/04 04:36:56;;;;;;;252.90;245.77;;;14.60;99.90;;;;;;4923704;29;20245;-85
2023/07/04 04:39:34;;;;;;;285.93;277.27;;;14.80;99.90;;;;;;4921452;28;20321;-82
2023/07/04 04:42:00;;;;;;;250.00;242.93;;;14.90;99.90;;;;;;4927276;29;20217;-83
2023/07/04 04:44:26;;;;;;;230.40;223.70;;;15.00;99.90;;;;;;4914041;29;20652;-84
2023/07/04 04:46:55;;;;;;;244.60;237.53;;;15.00;99.90;;;;;;4913838;29;20571;-86
2023/07/04 04:49:21;;;;;;;278.53;269.93;;;15.10;99.90;;;;;;4930057;29;20229;-84
2023/07/04 04:51:51;;;;;;;277.33;269.20;;;15.10;99.90;;;;;;4929722;29;20217;-85
2023/07/04 04:54:17;;;;;;;293.87;284.93;;;15.20;99.90;;;;;;4920810;29;20250;-86
2023/07/04 04:56:49;;;;;;;278.23;269.87;;;15.30;99.90;;;;;;4913497;29;20595;-87
2023/07/04 04:59:20;;;;;;;265.67;258.03;;;15.60;99.90;;;;;;4914067;29;20296;-85
2023/07/04 05:02:02;;;;;;;270.27;262.50;;;15.70;99.90;;;;;;4931954;29;20306;-85
2023/07/04 05:04:27;;;;;;;291.70;283.13;;;15.80;99.90;;;;;;4916247;29;20225;-85
2023/07/04 05:06:53;;;;;;;270.90;263.03;;;15.90;99.90;;;;;;4914210;29;20214;-84
2023/07/04 05:09:22;;;;;;;272.47;264.60;;;15.80;99.90;;;;;;4947015;29;20190;-85
2023/07/04 05:11:48;;;;;;;256.27;249.00;;;15.90;99.90;;;;;;4931910;29;20178;-83
2023/07/04 05:14:14;;;;;;;315.27;305.33;;;16.00;99.90;;;;;;4929782;29;20694;-82
2023/07/04 05:16:40;;;;;;;254.47;247.20;;;16.10;99.90;;;;;;4914214;29;20632;-85
2023/07/04 05:19:08;;;;;;;263.23;255.70;;;16.30;99.90;;;;;;4929043;29;20234;-84
2023/07/04 05:21:34;;;;;;;258.83;251.13;;;16.30;99.90;;;;;;4931360;29;20571;-83
2023/07/04 05:24:00;;;;;;;308.50;298.93;;;16.80;99.90;;;;;;4930522;29;20646;-83
2023/07/04 05:26:27;;;;;;;256.43;249.17;;;17.50;99.90;;;;;;4930012;29;20245;-83
2023/07/04 05:28:55;;;;;;;251.30;244.03;;;17.30;99.90;;;;;;4930975;29;20230;-84
2023/07/04 05:31:27;;;;;;;285.07;276.77;;;17.30;99.90;;;;;;4929763;29;20209;-84
2023/07/04 05:33:54;;;;;;;243.07;235.77;;;17.50;99.90;;;;;;4918651;29;20229;-84
2023/07/04 05:36:30;;;;;;;248.00;240.87;;;17.50;99.90;;;;;;4913891;29;20496;-86
2023/07/04 05:39:00;;;;;;;236.67;229.93;;;17.10;99.90;;;;;;4929838;29;20218;-86
2023/07/04 05:41:30;;;;;;;251.80;244.40;;;17.60;99.90;;;;;;4929565;29;20226;-86
2023/07/04 05:44:05;;;;;;;235.73;228.73;;;17.30;99.90;;;;;;4897767;29;20249;-85
2023/07/04 05:46:31;;;;;;;235.90;229.00;;;17.20;99.90;;;;;;4912250;29;20699;-85
2023/07/04 05:49:12;;;;;;;239.47;232.60;;;17.20;99.90;;;;;;4904084;29;20221;-86
2023/07/04 05:51:56;;;;;;;232.53;225.80;;;18.00;99.90;;;;;;4903930;29;20296;-86
2023/07/04 05:54:22;;;;;;;178.50;172.90;;;19.90;99.90;;;;;;4913496;29;20265;-84
2023/07/04 05:56:52;;;;;;;206.57;200.57;;;20.60;99.90;;;;;;4897991;29;20598;-86
2023/07/04 05:59:20;;;;;;;158.77;153.73;;;21.00;99.90;;;;;;4929015;28;20233;-87
2023/07/04 06:01:53;;;;;;;175.77;168.97;;;21.00;99.90;;;;;;4928631;29;20256;-85
2023/07/04 06:04:21;;;;;;;173.50;168.37;;;19.80;99.90;;;;;;4912982;29;20214;-86
2023/07/04 06:06:52;;;;;;;151.27;146.10;;;19.90;99.90;;;;;;4912584;29;20218;-85
2023/07/04 06:09:20;;;;;;;235.90;228.20;;;21.10;99.90;;;;;;4928254;29;20280;-85
2023/07/04 06:11:53;;;;;;;120.73;116.80;;;21.20;99.90;;;;;;4929033;29;20288;-86
2023/07/04 06:14:27;;;;;;;93.20;90.33;;;21.70;99.90;;;;;;4912480;29;20269;-85
2023/07/04 06:16:56;;;;;;;91.07;88.30;;;22.70;99.90;;;;;;4916142;29;20222;-84
2023/07/04 06:19:23;;;;;;;75.60;73.27;;;22.60;99.90;;;;;;4933122;29;20234;-84
2023/07/04 06:21:49;;;;;;;207.70;201.17;;;22.60;99.90;;;;;;4912826;29;20218;-85
2023/07/04 06:24:16;;;;;;;75.80;73.30;;;21.50;99.90;;;;;;4929005;29;20240;-84
2023/07/04 06:26:42;;;;;;;82.23;79.43;;;22.10;99.90;;;;;;4897744;29;20643;-84
2023/07/04 06:29:08;;;;;;;100.97;97.77;;;23.40;99.90;;;;;;4897531;29;20237;-84
2023/07/04 06:31:34;;;;;;;70.27;67.93;;;21.60;99.90;;;;;;4887737;29;20217;-85
2023/07/04 06:34:00;;;;;;;83.40;80.80;;;22.30;99.90;;;;;;4888743;29;20590;-83
2023/07/04 06:36:26;;;;;;;82.95;79.95;;;22.80;99.90;;;;;;4932348;29;20237;-84
2023/07/04 06:38:59;;;;;;;64.33;62.20;;;22.40;99.90;;;;;;4932292;29;20649;-84
2023/07/04 06:41:25;;;;;;;58.80;56.37;;;21.30;99.90;;;;;;4933330;29;20229;-84
2023/07/04 06:43:51;;;;;;;68.13;65.73;;;21.70;99.90;;;;;;4916363;29;20229;-84
2023/07/04 06:46:19;;;;;;;69.90;67.50;;;22.00;99.90;;;;;;4931629;29;20908;-84
2023/07/04 06:48:52;;;;;;;61.42;59.45;;;22.50;99.90;;;;;;4931964;29;20228;-85
2023/07/04 06:51:33;;;;;;;78.80;76.20;;;23.30;99.90;;;;;;4932373;29;20189;-85
2023/07/04 06:54:04;;;;;;;96.25;93.20;;;22.30;99.90;;;;;;4933494;29;20274;-85
2023/07/04 06:56:37;;;;;;;69.78;67.47;;;20.90;99.90;;;;;;4916737;29;20237;-85
2023/07/04 06:59:04;;;;;;;75.87;73.13;;;19.50;99.90;;;;;;4931830;29;20332;-83
2023/07/04 07:01:32;;;;;;;154.00;149.17;;;18.80;99.90;;;;;;4931627;29;20373;-83
2023/07/04 07:04:03;;;;;;;77.43;74.73;;;18.50;99.90;;;;;;4932315;29;20284;-85
2023/07/04 07:06:29;;;;;;;101.23;98.13;;;18.70;99.90;;;;;;4924199;29;20709;-84
2023/07/04 07:08:55;;;;;;;172.37;166.17;;;19.10;99.90;;;;;;4932338;29;20178;-84
2023/07/04 07:11:21;;;;;;;104.87;101.47;;;18.90;99.90;;;;;;4915949;29;20214;-84
2023/07/04 07:13:48;;;;;;;95.77;92.53;;;18.80;99.90;;;;;;4916481;29;20222;-84
2023/07/04 07:16:25;;;;;;;104.53;101.30;;;19.00;99.90;;;;;;4933300;29;20221;-83
2023/07/04 07:18:54;;;;;;;117.13;113.53;;;19.00;99.90;;;;;;4916409;29;20241;-84
2023/07/04 07:21:23;;;;;;;96.07;93.07;;;19.10;99.90;;;;;;4916514;29;20277;-84
2023/07/04 07:23:50;;;;;;;99.83;96.60;;;19.60;99.90;;;;;;4932739;29;20178;-84
2023/07/04 07:26:21;;;;;;;233.53;222.57;;;20.20;99.90;;;;;;4931473;29;20222;-85
2023/07/04 07:28:47;;;;;;;89.63;86.60;;;20.30;99.90;;;;;;4913297;29;20611;-84
2023/07/04 07:31:15;;;;;;;76.13;73.53;;;20.90;99.90;;;;;;4930169;29;20221;-84
2023/07/04 07:33:45;;;;;;;77.87;75.33;;;21.50;99.90;;;;;;4922210;29;20229;-82
2023/07/04 07:36:23;;;;;;;75.50;72.77;;;20.60;99.90;;;;;;4917370;28;20245;-83
2023/07/04 07:38:55;;;;;;;202.20;195.37;;;20.60;99.90;;;;;;4951016;29;20208;-85
2023/07/04 07:41:26;;;;;;;69.13;66.93;;;20.30;99.90;;;;;;4934312;29;20225;-85
2023/07/04 07:43:52;;;;;;;68.23;66.10;;;20.30;99.90;;;;;;4951587;29;20291;-84
2023/07/04 07:46:18;;;;;;;69.47;67.27;;;20.70;99.90;;;;;;4932925;29;20805;-84
2023/07/04 07:48:48;;;;;;;77.13;74.53;;;21.20;99.90;;;;;;4950866;29;20244;-84
2023/07/04 07:51:21;;;;;;;58.10;56.03;;;21.60;99.90;;;;;;4935068;29;20274;-85
2023/07/04 07:53:49;;;;;;;81.50;78.63;;;23.10;99.90;;;;;;4935405;29;20172;-85
2023/07/04 07:56:18;;;;;;;87.25;84.38;;;24.40;99.90;;;;;;4911169;29;20228;-85
2023/07/04 07:58:44;;;;;;;62.45;60.25;;;23.70;99.90;;;;;;4951084;29;20611;-84
2023/07/04 08:01:22;;;;;;;80.57;77.88;;;22.60;99.90;;;;;;4949469;29;20229;-85
2023/07/04 08:03:48;;;;;;;116.43;111.78;;;23.00;99.90;;;;;;4951487;29;20221;-85
2023/07/04 08:06:29;;;;;;;112.13;108.47;;;22.60;99.90;;;;;;4933606;29;20209;-83
2023/07/04 08:08:56;;;;;;;63.05;60.85;;;21.20;99.90;;;;;;4934371;29;20228;-85
2023/07/04 08:11:26;;;;;;;67.32;65.10;;;20.70;99.90;;;;;;4935584;29;20268;-89
2023/07/04 08:13:53;;;;;;;108.90;105.47;;;21.00;99.90;;;;;;4951291;29;20220;-87
2023/07/04 08:16:40;;;;;;;68.47;66.17;;;20.90;99.90;;;;;;4932825;29;20229;-85
2023/07/04 08:19:24;;;;;;;70.57;67.83;;;20.30;99.90;;;;;;4933498;29;20283;-88
2023/07/04 08:21:51;;;;;;;81.23;78.50;;;19.20;99.90;;;;;;4934910;29;20312;-85
2023/07/04 08:24:27;;;;;;;91.10;88.17;;;19.30;99.90;;;;;;4935926;29;20321;-86
2023/07/04 08:26:55;;;;;;;123.80;119.87;;;20.30;99.90;;;;;;4949914;29;20229;-89
2023/07/04 08:29:23;;;;;;;84.30;81.67;;;21.50;99.90;;;;;;4925466;29;20757;-87
2023/07/04 08:31:49;;;;;;;81.37;78.77;;;22.50;99.90;;;;;;4950435;29;20186;-86
2023/07/04 08:37:05;;;;;;;79.78;76.68;;;24.20;99.90;;;;;;4949920;28;20299;-87
2023/07/04 08:39:54;;;;;;;73.15;70.85;;;24.40;99.90;;;;;;4918412;29;20272;-88
2023/07/04 08:42:33;;;;;;;80.43;77.82;;;24.20;99.90;;;;;;4909759;29;20695;-85
2023/07/04 08:45:08;;;;;;;90.20;87.35;;;24.40;99.90;;;;;;4923844;29;20678;-86
2023/07/04 08:47:40;;;;;;;66.25;63.95;;;23.70;99.90;;;;;;4917801;29;20212;-87
2023/07/04 08:50:24;;;;;;;62.33;60.33;;;22.70;99.90;;;;;;4932289;28;20244;-84
2023/07/04 08:53:11;;;;;;;91.80;88.95;;;21.50;99.90;;;;;;4933547;29;20178;-85
2023/07/04 08:56:14;;;;;;;91.55;88.70;;;21.60;99.90;;;;;;4908466;29;20244;-85
2023/07/04 08:58:55;;;;;;;64.18;62.03;;;22.70;99.90;;;;;;4932551;29;20217;-85
2023/07/04 09:01:41;;;;;;;72.13;69.63;;;21.80;99.90;;;;;;4949096;29;20463;-87
2023/07/04 09:04:46;;;;;;;71.43;69.15;;;22.20;99.90;;;;;;4932080;29;20795;-85
2023/07/04 09:07:37;;;;;;;70.97;68.68;;;22.10;99.90;;;;;;4948178;29;20231;-87
2023/07/04 09:10:25;;;;;;;102.45;98.97;;;22.40;99.90;;;;;;4947952;29;20221;-84
2023/07/04 09:12:53;;;;;;;139.98;134.82;;;22.70;99.90;;;;;;4948104;29;20220;-86
2023/07/04 09:15:31;;;;;;;79.88;77.07;;;21.80;99.90;;;;;;4948921;29;20216;-88
2023/07/04 09:18:33;;;;;;;108.82;105.45;;;21.70;99.90;;;;;;4931408;29;20217;-85
2023/07/04 09:21:15;;;;;;;81.82;79.25;;;22.10;99.90;;;;;;4932657;29;20264;-85
2023/07/04 09:23:44;;;;;;;75.15;72.80;;;22.40;99.90;;;;;;4932091;29;20225;-85
2023/07/04 09:26:16;;;;;;;89.30;86.47;;;22.70;99.90;;;;;;4948666;29;20169;-86
2023/07/04 09:28:44;;;;;;;77.88;75.07;;;21.30;99.90;;;;;;4933001;29;20166;-85
2023/07/04 09:31:22;;;;;;;174.68;168.55;;;20.90;99.90;;;;;;4931818;29;20453;-85
2023/07/04 09:33:52;;;;;;;89.60;86.65;;;20.90;99.90;;;;;;4932086;29;20446;-84
2023/07/04 09:36:21;;;;;;;86.70;83.85;;;20.50;99.90;;;;;;4949644;28;20404;-85
2023/07/04 09:39:00;;;;;;;68.43;66.30;;;20.70;99.90;;;;;;4948589;29;20260;-85
2023/07/04 09:41:31;;;;;;;77.83;75.13;;;21.00;99.90;;;;;;4948732;29;20235;-86
2023/07/04 09:44:14;;;;;;;227.80;217.87;;;21.00;99.90;;;;;;4950026;29;20266;-85
2023/07/04 09:46:47;;;;;;;83.77;81.07;;;20.40;99.90;;;;;;4932811;29;20202;-85
2023/07/04 09:49:18;;;;;;;67.17;64.87;;;20.40;99.90;;;;;;4949537;29;20280;-85
2023/07/04 09:52:16;;;;;;;70.03;67.40;;;20.90;99.90;;;;;;4948173;29;20403;-83
2023/07/04 09:54:42;;;;;;;69.40;67.10;;;20.90;99.90;;;;;;4931954;28;20221;-84
2023/07/04 09:57:28;;;;;;;68.27;66.07;;;21.00;99.90;;;;;;4949547;29;20229;-84
2023/07/04 10:00:12;;;;;;;111.77;107.77;;;21.40;99.90;;;;;;4949260;29;20221;-82
2023/07/04 10:02:38;;;;;;;67.87;65.63;;;20.80;99.90;;;;;;4932045;29;20217;-84
2023/07/04 10:05:05;;;;;;;83.47;80.73;;;20.10;99.90;;;;;;4932944;29;20177;-84
2023/07/04 10:07:31;;;;;;;88.53;85.33;;;19.50;99.90;;;;;;4949415;29;20269;-83
2023/07/04 10:10:04;;;;;;;204.50;197.03;;;19.40;99.90;;;;;;4947530;28;20229;-83
2023/07/04 10:12:40;;;;;;;91.00;88.10;;;20.30;99.90;;;;;;4949168;29;20587;-85
2023/07/04 10:15:06;;;;;;;91.73;88.57;;;21.20;99.90;;;;;;4948175;28;20220;-83
2023/07/04 10:17:37;;;;;;;85.13;82.40;;;21.60;99.90;;;;;;4949209;29;20213;-85
2023/07/04 10:20:16;;;;;;;66.47;63.97;;;21.30;99.90;;;;;;4948513;29;20396;-84
2023/07/04 10:22:49;;;;;;;84.33;81.70;;;22.10;99.90;;;;;;4948245;29;20678;-86
2023/07/04 10:25:18;;;;;;;145.73;140.80;;;22.00;99.90;;;;;;4954867;29;20233;-84
2023/07/04 10:27:58;;;;;;;82.27;79.57;;;21.10;99.90;;;;;;4943140;29;20268;-81
2023/07/04 10:30:45;;;;;;;85.87;82.70;;;21.10;99.90;;;;;;4958097;29;20256;-82
2023/07/04 10:33:30;;;;;;;90.67;87.80;;;21.00;99.90;;;;;;4940631;29;20228;-81
2023/07/04 10:36:01;;;;;;;113.27;109.60;;;20.70;99.90;;;;;;4953047;28;20219;-81
2023/07/04 10:38:45;;;;;;;111.87;108.03;;;20.90;99.90;;;;;;4935051;28;20693;-82
2023/07/04 10:41:34;;;;;;;131.50;127.27;;;21.10;99.90;;;;;;4957245;29;20201;-82
2023/07/04 10:44:22;;;;;;;73.07;70.63;;;20.70;99.90;;;;;;4927698;29;20723;-83
2023/07/04 10:47:02;;;;;;;80.63;77.97;;;20.70;99.90;;;;;;4955313;28;20225;-82
2023/07/04 10:49:48;;;;;;;101.43;98.30;;;21.10;99.90;;;;;;4937296;29;20228;-82
2023/07/04 10:52:31;;;;;;;78.27;75.70;;;21.10;99.90;;;;;;4940888;29;20820;-81
2023/07/04 10:55:01;;;;;;;115.83;112.23;;;21.20;99.90;;;;;;4951618;28;20208;-81
2023/07/04 10:57:59;;;;;;;122.07;117.70;;;20.60;99.90;;;;;;4950723;29;20170;-83
2023/07/04 11:00:48;;;;;;;87.77;84.80;;;20.00;99.90;;;;;;4936039;29;20264;-82
2023/07/04 11:03:44;;;;;;;107.20;103.87;;;20.20;99.90;;;;;;4955896;29;20221;-81
2023/07/04 11:06:39;;;;;;;70.33;68.17;;;20.30;99.90;;;;;;4953600;29;20281;-82
2023/07/04 11:09:19;;;;;;;64.47;62.27;;;20.60;99.90;;;;;;4937918;29;20671;-80
2023/07/04 11:19:22;;;;;;;67.17;65.00;;;20.40;99.90;;;;;;4933043;29;20216;-80
2023/07/04 11:22:09;;;;;;;64.57;62.37;;;20.70;99.90;;;;;;4919428;29;20201;-82
2023/07/04 11:24:41;;;;;;;73.17;70.67;;;21.30;99.90;;;;;;4936249;29;20190;-82
2023/07/04 11:27:53;;;;;;;80.20;77.40;;;20.60;99.90;;;;;;4937321;29;20253;-81
2023/07/04 11:30:34;;;;;;;79.00;76.50;;;20.70;99.90;;;;;;4912523;29;20222;-80
2023/07/04 11:33:32;;;;;;;91.17;88.07;;;20.50;99.90;;;;;;4936137;29;20202;-82
2023/07/04 11:36:23;;;;;;;64.97;62.73;;;20.20;99.90;;;;;;4921270;29;20210;-82
2023/07/04 11:38:58;;;;;;;92.37;89.30;;;20.40;99.90;;;;;;4893499;29;20222;-81
2023/07/04 11:41:37;;;;;;;161.67;156.37;;;20.60;99.90;;;;;;4920799;29;20255;-83
2023/07/04 11:47:59;;;;;;;88.13;85.43;;;19.90;99.90;;;;;;4948455;29;20714;-81
2023/07/04 11:50:43;;;;;;;117.77;113.93;;;20.20;99.90;;;;;;4951616;29;20228;-81
2023/07/04 11:53:45;;;;;;;89.77;86.73;;;20.30;99.90;;;;;;4945073;29;20237;-82
2023/07/04 11:56:26;;;;;;;117.53;113.73;;;19.90;99.90;;;;;;4947796;29;20287;-81
2023/07/04 11:59:53;;;;;;;147.30;142.63;;;19.90;99.90;;;;;;4954512;28;20232;-79
2023/07/04 12:02:35;;;;;;;123.07;119.20;;;19.80;99.90;;;;;;4962018;28;20245;-83
2023/07/04 12:05:27;;;;;;;68.67;66.00;;;19.50;99.90;;;;;;4952757;29;20225;-82
2023/07/04 12:07:59;;;;;;;93.93;90.87;;;19.70;99.90;;;;;;4932971;29;20218;-80
2023/07/04 12:10:34;;;;;;;116.70;112.83;;;20.50;99.90;;;;;;4946135;29;20217;-81
2023/07/04 12:13:13;;;;;;;83.50;80.93;;;20.40;99.90;;;;;;4946523;29;20221;-80
2023/07/04 12:16:00;;;;;;;124.13;119.97;;;20.20;99.90;;;;;;4929618;28;20216;-80
2023/07/04 12:18:28;;;;;;;93.37;90.43;;;19.90;99.90;;;;;;4931629;29;20194;-79
2023/07/04 12:21:04;;;;;;;79.43;76.30;;;20.10;99.90;;;;;;4944339;29;20247;-79
2023/07/04 12:23:31;;;;;;;154.07;149.23;;;20.50;99.90;;;;;;4955610;29;20228;-80
2023/07/04 12:25:59;;;;;;;155.93;151.13;;;20.10;99.90;;;;;;4958032;28;20272;-83
2023/07/04 12:28:29;;;;;;;84.17;81.47;;;19.90;99.90;;;;;;4949384;29;20630;-82
2023/07/04 12:31:03;;;;;;;113.63;110.03;;;20.00;99.90;;;;;;4957442;29;20294;-82
2023/07/04 12:33:34;;;;;;;126.50;122.50;;;20.50;99.90;;;;;;4931637;29;20208;-83
2023/07/04 12:36:10;;;;;;;70.60;68.13;;;20.90;99.90;;;;;;4933153;29;20213;-82
2023/07/04 12:38:48;;;;;;;115.07;111.33;;;20.60;99.90;;;;;;4950666;29;20232;-84
2023/07/04 12:41:18;;;;;;;84.53;82.00;;;20.30;99.90;;;;;;4933970;29;20233;-83
2023/07/04 12:43:44;;;;;;;66.90;64.70;;;20.70;99.90;;;;;;4933645;29;20698;-82
2023/07/04 12:46:15;;;;;;;90.70;87.83;;;20.90;99.90;;;;;;4933447;28;20209;-83
2023/07/04 12:48:42;;;;;;;80.70;78.03;;;21.20;99.90;;;;;;4933585;29;20194;-83
2023/07/04 12:51:21;;;;;;;112.10;108.53;;;21.30;99.90;;;;;;4933790;29;20765;-83
2023/07/04 12:53:47;;;;;;;80.23;77.57;;;21.10;99.90;;;;;;4933634;29;20227;-84
2023/07/04 12:56:15;;;;;;;88.53;85.63;;;20.70;99.90;;;;;;4949211;29;20684;-82
2023/07/04 12:58:43;;;;;;;89.63;86.73;;;21.00;99.90;;;;;;4949220;29;20217;-83
2023/07/04 13:01:11;;;;;;;88.17;85.23;;;20.90;99.90;;;;;;4949311;29;20229;-85
2023/07/04 13:03:38;;;;;;;87.80;85.00;;;21.10;99.90;;;;;;4948996;29;20617;-83
2023/07/04 13:06:08;;;;;;;112.27;108.50;;;21.20;99.90;;;;;;4933417;29;20193;-82
2023/07/04 13:08:51;;;;;;;71.87;69.47;;;20.90;99.90;;;;;;4933307;29;20221;-82
2023/07/04 13:11:20;;;;;;;71.07;68.50;;;21.00;99.90;;;;;;4933423;29;20236;-82
2023/07/04 13:13:48;;;;;;;82.07;79.30;;;20.70;99.90;;;;;;4932769;29;20213;-83
2023/07/04 13:16:24;;;;;;;94.17;91.07;;;20.20;99.90;;;;;;4949916;29;20233;-82
2023/07/04 13:18:52;;;;;;;103.23;99.63;;;19.90;99.90;;;;;;4950116;29;20260;-84
2023/07/04 13:21:30;;;;;;;149.43;144.17;;;19.60;99.90;;;;;;4948894;29;20276;-82
2023/07/04 13:23:58;;;;;;;97.33;94.33;;;19.30;99.90;;;;;;4948879;29;20205;-83
2023/07/04 13:26:30;;;;;;;144.40;140.03;;;19.50;99.90;;;;;;4948451;29;20581;-83
2023/07/04 13:28:58;;;;;;;79.37;76.87;;;19.70;99.90;;;;;;4949736;29;20304;-83
2023/07/04 13:31:24;;;;;;;123.87;119.97;;;19.70;99.90;;;;;;4949675;28;20647;-82
2023/07/04 13:33:54;;;;;;;100.43;97.13;;;19.80;99.90;;;;;;4948772;29;20209;-82
2023/07/04 13:36:32;;;;;;;194.43;187.27;;;19.90;99.90;;;;;;4933056;29;20632;-82
2023/07/04 13:38:58;;;;;;;100.50;97.37;;;19.50;99.90;;;;;;4932731;29;20565;-83
2023/07/04 13:41:24;;;;;;;110.30;106.90;;;19.40;99.90;;;;;;4948568;28;20280;-84
2023/07/04 13:43:50;;;;;;;100.87;97.37;;;19.20;99.90;;;;;;4932024;29;20226;-83
2023/07/04 13:46:18;;;;;;;112.07;108.47;;;19.30;99.90;;;;;;4949799;29;20305;-83
2023/07/04 13:48:44;;;;;;;96.17;93.23;;;19.30;99.90;;;;;;4949539;29;20189;-83
2023/07/04 13:51:11;;;;;;;104.60;101.20;;;19.50;99.90;;;;;;4949046;29;20338;-82
2023/07/04 13:53:37;;;;;;;112.03;108.60;;;19.60;99.90;;;;;;4949809;29;20224;-82
2023/07/04 13:56:03;;;;;;;150.77;146.17;;;19.90;99.90;;;;;;4948354;29;20217;-83
2023/07/04 13:58:29;;;;;;;112.47;108.43;;;19.60;99.90;;;;;;4931899;29;20701;-83
2023/07/04 14:00:55;;;;;;;96.17;93.17;;;19.80;99.90;;;;;;4947813;29;20249;-83
2023/07/04 14:03:21;;;;;;;183.33;177.20;;;20.00;99.90;;;;;;4950097;29;20579;-84
2023/07/04 14:05:47;;;;;;;120.10;116.23;;;20.20;99.90;;;;;;4916300;29;20671;-83
2023/07/04 14:08:13;;;;;;;105.87;102.17;;;19.90;99.90;;;;;;4948267;29;20301;-81